createdAt,value
2022-10-01T00:01:17.283Z,9.60
2022-10-01T00:03:46.552Z,9.60
2022-10-01T00:06:17.608Z,9.60
2022-10-01T00:08:48.942Z,9.60
2022-10-01T00:11:18.282Z,9.60
2022-10-01T00:13:47.554Z,9.60
2022-10-01T00:16:18.005Z,9.60
2022-10-01T00:18:46.504Z,9.60
2022-10-01T00:21:15.243Z,9.60
2022-10-01T00:23:44.394Z,9.60
2022-10-01T00:26:13.690Z,9.60
2022-10-01T00:28:42.148Z,9.60
2022-10-01T00:31:10.854Z,9.60
2022-10-01T00:33:39.099Z,9.60
2022-10-01T00:36:07.581Z,9.70
2022-10-01T00:38:36.461Z,9.80
2022-10-01T00:41:05.974Z,9.80
2022-10-01T00:43:35.136Z,9.80
2022-10-01T00:46:05.646Z,9.90
2022-10-01T00:48:35.295Z,9.90
2022-10-01T00:51:03.492Z,9.90
2022-10-01T00:53:31.530Z,10.00
2022-10-01T00:56:00.567Z,10.00
2022-10-01T00:58:30.036Z,10.00
2022-10-01T01:00:58.266Z,10.10
2022-10-01T01:03:26.885Z,10.10
2022-10-01T01:05:54.744Z,10.20
2022-10-01T01:08:22.651Z,10.20
2022-10-01T01:10:54.474Z,10.20
2022-10-01T01:13:26.042Z,10.20
2022-10-01T01:15:58.665Z,10.20
2022-10-01T01:18:30.482Z,10.20
2022-10-01T01:21:04.642Z,10.20
2022-10-01T01:23:46.346Z,10.20
2022-10-01T01:26:17.548Z,10.20
2022-10-01T01:28:48.971Z,10.20
2022-10-01T01:31:19.996Z,10.20
2022-10-01T01:33:49.757Z,10.30
2022-10-01T01:36:20.201Z,10.30
2022-10-01T01:38:51.620Z,10.30
2022-10-01T01:41:20.457Z,10.40
2022-10-01T01:43:51.487Z,10.40
2022-10-01T01:46:20.739Z,10.40
2022-10-01T01:48:51.109Z,10.40
2022-10-01T01:51:21.678Z,10.40
2022-10-01T01:53:49.689Z,10.40
2022-10-01T01:56:18.193Z,10.40
2022-10-01T01:58:46.769Z,10.40
2022-10-01T02:01:29.541Z,10.40
2022-10-01T02:03:58.972Z,10.40
2022-10-01T02:06:31.376Z,10.40
2022-10-01T02:09:04.296Z,10.40
2022-10-01T02:11:36.073Z,10.40
2022-10-01T02:14:07.246Z,10.40
2022-10-01T02:16:39.801Z,10.40
2022-10-01T02:19:13.988Z,10.40
2022-10-01T02:21:43.167Z,10.40
2022-10-01T02:24:14.797Z,10.40
2022-10-01T02:26:43.287Z,10.50
2022-10-01T02:29:13.149Z,10.50
2022-10-01T02:31:42.414Z,10.50
2022-10-01T02:34:17.150Z,10.50
2022-10-01T02:36:47.656Z,10.50
2022-10-01T02:39:16.578Z,10.50
2022-10-01T02:41:45.356Z,10.50
2022-10-01T02:44:15.133Z,10.50
2022-10-01T02:46:47.594Z,10.50
2022-10-01T02:49:17.064Z,10.50
2022-10-01T02:51:48.396Z,10.50
2022-10-01T02:54:18.846Z,10.50
2022-10-01T02:57:05.365Z,10.50
2022-10-01T02:59:33.235Z,10.50
2022-10-01T03:02:01.237Z,10.40
2022-10-01T03:04:30.464Z,10.40
2022-10-01T03:07:03.409Z,10.40
2022-10-01T03:09:32.260Z,10.40
2022-10-01T03:12:00.189Z,10.40
2022-10-01T03:14:28.073Z,10.40
2022-10-01T03:16:55.912Z,10.40
2022-10-01T03:19:23.760Z,10.40
2022-10-01T03:21:52.861Z,10.40
2022-10-01T03:24:23.589Z,10.50
2022-10-01T03:26:51.702Z,10.50
2022-10-01T03:29:19.533Z,10.50
2022-10-01T03:31:47.369Z,10.50
2022-10-01T03:34:15.202Z,10.60
2022-10-01T03:36:43.062Z,10.60
2022-10-01T03:39:12.278Z,10.60
2022-10-01T03:41:40.084Z,10.60
2022-10-01T03:44:08.124Z,10.60
2022-10-01T03:46:36.878Z,10.60
2022-10-01T03:49:04.889Z,10.60
2022-10-01T03:51:33.494Z,10.60
2022-10-01T03:54:01.556Z,10.60
2022-10-01T03:56:30.909Z,10.50
2022-10-01T03:58:58.735Z,10.50
2022-10-01T04:01:27.020Z,10.40
2022-10-01T04:03:55.034Z,10.30
2022-10-01T04:06:23.010Z,10.30
2022-10-01T04:08:50.907Z,10.20
2022-10-01T04:11:18.747Z,10.10
2022-10-01T04:13:48.057Z,10.10
2022-10-01T04:16:17.066Z,10.00
2022-10-01T04:18:45.420Z,9.90
2022-10-01T04:21:15.569Z,9.90
2022-10-01T04:23:46.154Z,9.90
2022-10-01T04:26:14.531Z,9.80
2022-10-01T04:28:45.166Z,9.80
2022-10-01T04:31:27.460Z,9.80
2022-10-01T04:33:56.139Z,9.70
2022-10-01T04:36:24.850Z,9.60
2022-10-01T04:38:54.668Z,9.60
2022-10-01T04:41:25.416Z,9.60
2022-10-01T04:43:53.316Z,9.50
2022-10-01T04:46:22.682Z,9.50
2022-10-01T04:48:50.517Z,9.50
2022-10-01T04:51:18.629Z,9.50
2022-10-01T04:53:48.263Z,9.50
2022-10-01T04:56:16.080Z,9.50
2022-10-01T04:58:43.904Z,9.40
2022-10-01T05:01:11.748Z,9.40
2022-10-01T05:03:41.251Z,9.40
2022-10-01T05:06:09.144Z,9.40
2022-10-01T05:08:37.950Z,9.40
2022-10-01T05:11:05.801Z,9.40
2022-10-01T05:13:33.606Z,9.40
2022-10-01T05:16:02.286Z,9.40
2022-10-01T05:18:30.166Z,9.40
2022-10-01T05:20:59.448Z,9.40
2022-10-01T05:23:27.294Z,9.40
2022-10-01T05:25:55.096Z,9.40
2022-10-01T05:28:23.108Z,9.40
2022-10-01T05:30:51.796Z,9.50
2022-10-01T05:33:19.916Z,9.50
2022-10-01T05:35:47.871Z,9.50
2022-10-01T05:38:17.061Z,9.50
2022-10-01T05:40:46.293Z,9.50
2022-10-01T05:43:14.093Z,9.50
2022-10-01T05:45:42.089Z,9.50
2022-10-01T05:48:10.111Z,9.60
2022-10-01T05:50:39.179Z,9.60
2022-10-01T05:53:07.501Z,9.60
2022-10-01T05:55:36.656Z,9.60
2022-10-01T05:58:05.284Z,9.60
2022-10-01T06:00:33.788Z,9.60
2022-10-01T06:03:02.564Z,9.60
2022-10-01T06:05:31.356Z,9.60
2022-10-01T06:07:59.160Z,9.60
2022-10-01T06:10:28.236Z,9.60
2022-10-01T06:13:01.741Z,9.60
2022-10-01T06:15:29.969Z,9.70
2022-10-01T06:17:57.865Z,9.70
2022-10-01T06:20:25.681Z,9.60
2022-10-01T06:22:54.985Z,9.70
2022-10-01T06:25:22.971Z,9.70
2022-10-01T06:27:54.152Z,9.70
2022-10-01T06:30:23.582Z,9.70
2022-10-01T06:32:51.444Z,9.70
2022-10-01T06:35:20.744Z,9.70
2022-10-01T06:37:48.586Z,9.70
2022-10-01T06:40:16.437Z,9.70
2022-10-01T06:42:47.871Z,9.70
2022-10-01T06:45:15.802Z,9.80
2022-10-01T06:47:45.247Z,9.80
2022-10-01T06:50:13.134Z,9.80
2022-10-01T06:52:52.772Z,9.80
2022-10-01T06:55:21.496Z,9.80
2022-10-01T06:57:50.257Z,9.80
2022-10-01T07:00:18.141Z,9.80
2022-10-01T07:02:47.873Z,9.80
2022-10-01T07:05:16.089Z,9.80
2022-10-01T07:07:44.513Z,9.80
2022-10-01T07:10:12.970Z,9.80
2022-10-01T07:12:40.816Z,9.80
2022-10-01T07:15:09.270Z,9.80
2022-10-01T07:17:43.693Z,9.80
2022-10-01T07:20:13.055Z,9.80
2022-10-01T07:22:40.934Z,9.80
2022-10-01T07:25:09.344Z,9.80
2022-10-01T07:27:37.220Z,9.80
2022-10-01T07:30:05.384Z,9.90
2022-10-01T07:32:35.163Z,10.00
2022-10-01T07:35:03.491Z,10.00
2022-10-01T07:37:32.701Z,9.90
2022-10-01T07:40:05.259Z,9.90
2022-10-01T07:42:38.274Z,9.90
2022-10-01T07:45:06.750Z,9.90
2022-10-01T07:47:34.690Z,9.90
2022-10-01T07:50:02.574Z,9.90
2022-10-01T07:52:31.739Z,9.90
2022-10-01T07:54:59.612Z,9.90
2022-10-01T07:57:27.506Z,9.90
2022-10-01T07:59:56.151Z,9.90
2022-10-01T08:02:24.244Z,9.90
2022-10-01T08:05:09.950Z,9.90
2022-10-01T08:07:39.159Z,9.90
2022-10-01T08:10:07.289Z,9.90
2022-10-01T08:12:35.161Z,9.90
2022-10-01T08:15:03.316Z,9.90
2022-10-01T08:17:31.425Z,10.00
2022-10-01T08:19:59.227Z,10.00
2022-10-01T08:22:27.434Z,10.00
2022-10-01T08:24:56.801Z,10.00
2022-10-01T08:27:25.091Z,10.10
2022-10-01T08:29:53.478Z,10.10
2022-10-01T08:32:21.781Z,10.00
2022-10-01T08:34:54.506Z,10.00
2022-10-01T08:37:28.182Z,10.00
2022-10-01T08:39:57.575Z,10.00
2022-10-01T08:42:34.358Z,10.00
2022-10-01T08:45:03.793Z,10.00
2022-10-01T08:47:34.959Z,10.00
2022-10-01T08:50:08.197Z,10.00
2022-10-01T08:52:38.879Z,10.00
2022-10-01T08:55:11.471Z,10.00
2022-10-01T08:57:42.282Z,10.00
2022-10-01T09:00:12.880Z,10.20
2022-10-01T09:02:41.352Z,10.30
2022-10-01T09:05:17.595Z,10.40
2022-10-01T09:07:50.830Z,10.40
2022-10-01T09:10:28.803Z,10.50
2022-10-01T09:13:10.644Z,10.50
2022-10-01T09:15:42.724Z,10.50
2022-10-01T09:18:16.819Z,10.50
2022-10-01T09:20:46.550Z,10.40
2022-10-01T09:23:19.407Z,10.40
2022-10-01T09:25:50.590Z,10.40
2022-10-01T09:28:20.971Z,10.40
2022-10-01T09:30:51.549Z,10.40
2022-10-01T09:33:20.828Z,10.50
2022-10-01T09:35:51.833Z,10.40
2022-10-01T09:38:24.295Z,10.50
2022-10-01T09:40:55.055Z,10.50
2022-10-01T09:43:23.429Z,10.50
2022-10-01T09:45:51.947Z,10.50
2022-10-01T09:48:25.858Z,10.60
2022-10-01T09:50:56.472Z,10.60
2022-10-01T09:53:27.426Z,10.60
2022-10-01T09:55:58.571Z,10.60
2022-10-01T09:58:28.658Z,10.60
2022-10-01T10:00:58.162Z,10.60
2022-10-01T10:03:27.386Z,10.60
2022-10-01T10:05:55.487Z,10.60
2022-10-01T10:08:27.401Z,10.60
2022-10-01T10:10:58.406Z,10.60
2022-10-01T10:13:32.741Z,10.60
2022-10-01T10:16:00.833Z,10.60
2022-10-01T10:18:29.762Z,10.60
2022-10-01T10:20:59.017Z,10.60
2022-10-01T10:23:28.983Z,10.70
2022-10-01T10:26:00.906Z,10.70
2022-10-01T10:28:29.481Z,10.80
2022-10-01T10:30:58.513Z,10.90
2022-10-01T10:33:27.362Z,10.90
2022-10-01T10:35:59.268Z,11.10
2022-10-01T10:38:28.381Z,11.20
2022-10-01T10:40:57.607Z,11.30
2022-10-01T10:43:29.140Z,11.40
2022-10-01T10:45:57.532Z,11.50
2022-10-01T10:48:26.380Z,11.60
2022-10-01T10:50:59.562Z,11.60
2022-10-01T10:53:30.058Z,11.70
2022-10-01T10:56:00.298Z,11.70
2022-10-01T10:58:30.060Z,11.80
2022-10-01T11:00:59.446Z,11.70
2022-10-01T11:03:30.368Z,11.70
2022-10-01T11:05:59.917Z,11.70
2022-10-01T11:08:29.001Z,11.70
2022-10-01T11:11:04.064Z,11.60
2022-10-01T11:13:39.582Z,11.70
2022-10-01T11:16:14.548Z,11.60
2022-10-01T11:18:58.393Z,11.50
2022-10-01T11:21:35.189Z,11.30
2022-10-01T11:24:10.386Z,11.30
2022-10-01T11:26:41.646Z,11.30
2022-10-01T11:29:16.365Z,11.30
2022-10-01T11:31:49.755Z,11.30
2022-10-01T11:34:31.667Z,11.40
2022-10-01T11:37:02.926Z,11.50
2022-10-01T11:39:34.922Z,11.60
2022-10-01T11:42:05.115Z,11.70
2022-10-01T11:44:36.283Z,11.80
2022-10-01T11:47:06.054Z,11.90
2022-10-01T11:49:42.979Z,12.00
2022-10-01T11:52:15.861Z,12.20
2022-10-01T11:54:52.167Z,12.30
2022-10-01T11:57:41.587Z,12.50
2022-10-01T12:00:12.980Z,12.60
2022-10-01T12:02:46.197Z,12.80
2022-10-01T12:05:17.237Z,13.00
2022-10-01T12:07:50.938Z,13.10
2022-10-01T12:10:24.865Z,13.10
2022-10-01T12:12:56.490Z,13.10
2022-10-01T12:15:29.429Z,13.10
2022-10-01T12:18:02.104Z,13.00
2022-10-01T12:20:32.596Z,13.00
2022-10-01T12:23:01.807Z,13.00
2022-10-01T12:25:32.458Z,13.00
2022-10-01T12:28:04.969Z,12.90
2022-10-01T12:30:37.278Z,12.90
2022-10-01T12:33:13.943Z,13.00
2022-10-01T12:35:52.216Z,13.20
2022-10-01T12:38:26.888Z,13.30
2022-10-01T12:40:57.814Z,13.50
2022-10-01T12:43:39.050Z,13.80
2022-10-01T12:46:12.344Z,14.10
2022-10-01T12:48:44.853Z,14.60
2022-10-01T12:51:23.872Z,14.70
2022-10-01T12:53:57.014Z,15.20
2022-10-01T12:56:30.724Z,15.50
2022-10-01T12:59:07.194Z,15.70
2022-10-01T13:01:43.970Z,16.10
2022-10-01T13:04:18.339Z,16.90
2022-10-01T13:06:54.050Z,17.50
2022-10-01T13:09:26.117Z,17.90
2022-10-01T13:12:03.153Z,18.20
2022-10-01T13:14:35.742Z,18.10
2022-10-01T13:17:09.714Z,18.10
2022-10-01T13:19:42.120Z,18.40
2022-10-01T13:22:16.239Z,18.60
2022-10-01T13:24:47.023Z,18.70
2022-10-01T13:27:19.520Z,18.90
2022-10-01T13:29:50.588Z,19.10
2022-10-01T13:32:27.187Z,19.00
2022-10-01T13:34:55.827Z,19.10
2022-10-01T13:37:33.350Z,19.30
2022-10-01T13:40:02.306Z,19.60
2022-10-01T13:42:32.312Z,19.90
2022-10-01T13:45:01.880Z,20.00
2022-10-01T13:47:32.997Z,19.70
2022-10-01T13:50:03.809Z,20.00
2022-10-01T13:52:32.623Z,19.90
2022-10-01T13:55:01.268Z,19.80
2022-10-01T13:57:31.111Z,19.60
2022-10-01T14:00:00.349Z,19.70
2022-10-01T14:02:39.476Z,19.70
2022-10-01T14:05:23.921Z,19.60
2022-10-01T14:07:55.259Z,19.60
2022-10-01T14:10:24.357Z,19.10
2022-10-01T14:13:10.906Z,18.50
2022-10-01T14:16:03.251Z,18.00
2022-10-01T14:18:36.297Z,18.20
2022-10-01T14:21:09.291Z,18.40
2022-10-01T14:23:40.442Z,18.50
2022-10-01T14:26:14.024Z,18.40
2022-10-01T14:28:48.588Z,18.00
2022-10-01T14:31:23.185Z,17.60
2022-10-01T14:34:02.530Z,17.70
2022-10-01T14:36:34.967Z,18.30
2022-10-01T14:39:14.166Z,18.60
2022-10-01T14:41:42.113Z,18.60
2022-10-01T14:44:20.196Z,18.50
2022-10-01T14:46:48.161Z,18.10
2022-10-01T14:49:24.881Z,17.80
2022-10-01T14:51:54.458Z,17.50
2022-10-01T14:54:22.718Z,17.00
2022-10-01T14:56:50.941Z,16.80
2022-10-01T14:59:21.185Z,16.60
2022-10-01T15:01:59.430Z,16.50
2022-10-01T15:04:28.782Z,16.40
2022-10-01T15:07:03.715Z,16.30
2022-10-01T15:09:34.072Z,16.20
2022-10-01T15:12:02.929Z,16.10
2022-10-01T15:14:32.026Z,16.00
2022-10-01T15:17:03.306Z,16.00
2022-10-01T15:19:33.888Z,16.10
2022-10-01T15:22:02.561Z,16.10
2022-10-01T15:24:32.398Z,16.20
2022-10-01T15:27:00.377Z,16.20
2022-10-01T15:29:28.432Z,16.20
2022-10-01T15:31:58.024Z,16.30
2022-10-01T15:34:27.185Z,16.20
2022-10-01T15:36:56.583Z,16.10
2022-10-01T15:39:26.442Z,16.00
2022-10-01T15:41:56.700Z,15.90
2022-10-01T15:44:45.859Z,15.90
2022-10-01T15:47:26.362Z,15.90
2022-10-01T15:50:16.487Z,15.80
2022-10-01T15:52:51.805Z,15.80
2022-10-01T15:55:22.518Z,15.80
2022-10-01T15:57:53.725Z,15.80
2022-10-01T16:00:22.978Z,15.70
2022-10-01T16:02:51.063Z,15.70
2022-10-01T16:05:21.129Z,15.70
2022-10-01T16:07:54.469Z,15.70
2022-10-01T16:10:29.015Z,15.70
2022-10-01T16:12:56.860Z,15.70
2022-10-01T16:15:25.873Z,15.70
2022-10-01T16:17:54.775Z,15.60
2022-10-01T16:20:36.971Z,15.60
2022-10-01T16:23:23.522Z,15.50
2022-10-01T16:25:52.761Z,15.40
2022-10-01T16:28:25.525Z,15.40
2022-10-01T16:30:53.781Z,15.40
2022-10-01T16:33:21.724Z,15.30
2022-10-01T16:35:49.807Z,15.30
2022-10-01T16:38:17.805Z,15.30
2022-10-01T16:40:47.717Z,15.20
2022-10-01T16:43:18.711Z,15.10
2022-10-01T16:45:46.601Z,15.00
2022-10-01T16:48:15.657Z,15.00
2022-10-01T16:50:44.115Z,15.00
2022-10-01T16:53:12.782Z,15.00
2022-10-01T16:55:40.687Z,15.00
2022-10-01T16:58:08.859Z,15.00
2022-10-01T17:00:38.863Z,14.90
2022-10-01T17:03:09.043Z,14.90
2022-10-01T17:05:37.707Z,14.90
2022-10-01T17:08:11.074Z,14.90
2022-10-01T17:10:40.401Z,14.90
2022-10-01T17:13:08.510Z,14.90
2022-10-01T17:15:36.384Z,14.90
2022-10-01T17:18:05.692Z,14.90
2022-10-01T17:20:33.800Z,15.00
2022-10-01T17:23:01.632Z,14.90
2022-10-01T17:25:32.142Z,14.90
2022-10-01T17:28:01.557Z,14.80
2022-10-01T17:30:30.069Z,14.80
2022-10-01T17:32:59.921Z,14.80
2022-10-01T17:35:30.844Z,14.70
2022-10-01T17:37:59.042Z,14.70
2022-10-01T17:40:27.010Z,14.70
2022-10-01T17:42:54.955Z,14.60
2022-10-01T17:45:22.933Z,14.60
2022-10-01T17:47:51.419Z,14.60
2022-10-01T17:50:19.459Z,14.50
2022-10-01T17:52:49.118Z,14.50
2022-10-01T17:55:19.795Z,14.40
2022-10-01T17:57:47.942Z,14.50
2022-10-01T18:00:15.971Z,14.50
2022-10-01T18:02:44.473Z,14.40
2022-10-01T18:05:14.658Z,14.40
2022-10-01T18:07:43.181Z,14.30
2022-10-01T18:10:13.421Z,14.30
2022-10-01T18:12:41.444Z,14.20
2022-10-01T18:15:10.010Z,14.20
2022-10-01T18:17:43.558Z,14.10
2022-10-01T18:20:19.243Z,14.10
2022-10-01T18:22:47.125Z,14.00
2022-10-01T18:25:16.980Z,14.00
2022-10-01T18:27:46.044Z,14.00
2022-10-01T18:30:14.216Z,14.00
2022-10-01T18:32:43.981Z,14.00
2022-10-01T18:35:18.066Z,14.00
2022-10-01T18:37:48.997Z,13.90
2022-10-01T18:40:20.199Z,13.90
2022-10-01T18:42:50.825Z,13.90
2022-10-01T18:45:21.235Z,13.90
2022-10-01T18:47:56.110Z,13.90
2022-10-01T18:50:32.425Z,13.90
2022-10-01T18:53:07.486Z,13.90
2022-10-01T18:55:49.506Z,14.00
2022-10-01T18:58:36.554Z,14.00
2022-10-01T19:01:10.241Z,14.00
2022-10-01T19:03:44.725Z,14.00
2022-10-01T19:06:18.979Z,14.00
2022-10-01T19:08:54.046Z,14.00
2022-10-01T19:11:26.544Z,14.00
2022-10-01T19:13:58.397Z,14.00
2022-10-01T19:16:37.145Z,14.00
2022-10-01T19:19:13.359Z,14.00
2022-10-01T19:21:45.489Z,14.00
2022-10-01T19:24:24.395Z,14.10
2022-10-01T19:26:58.375Z,14.00
2022-10-01T19:29:37.331Z,14.00
2022-10-01T19:32:08.947Z,13.90
2022-10-01T19:34:40.085Z,13.90
2022-10-01T19:37:12.010Z,13.90
2022-10-01T19:39:42.288Z,13.90
2022-10-01T19:42:15.330Z,13.80
2022-10-01T19:44:45.776Z,13.80
2022-10-01T19:47:23.162Z,13.70
2022-10-01T19:49:53.211Z,13.70
2022-10-01T19:52:23.182Z,13.70
2022-10-01T19:54:54.174Z,13.70
2022-10-01T19:57:24.752Z,13.80
2022-10-01T19:59:55.531Z,13.90
2022-10-01T20:02:32.265Z,14.00
2022-10-01T20:05:03.392Z,14.10
2022-10-01T20:07:36.244Z,14.20
2022-10-01T20:10:07.175Z,14.20
2022-10-01T20:12:40.354Z,14.20
2022-10-01T20:15:20.109Z,14.20
2022-10-01T20:17:54.429Z,14.20
2022-10-01T20:20:25.202Z,14.20
2022-10-01T20:23:01.418Z,14.10
2022-10-01T20:25:32.324Z,14.00
2022-10-01T20:28:05.319Z,14.00
2022-10-01T20:30:39.185Z,13.90
2022-10-01T20:33:10.241Z,13.80
2022-10-01T20:35:53.336Z,13.70
2022-10-01T20:38:22.692Z,13.60
2022-10-01T20:40:54.500Z,13.50
2022-10-01T20:43:31.437Z,13.40
2022-10-01T20:46:00.667Z,13.30
2022-10-01T20:48:30.918Z,13.20
2022-10-01T20:51:02.416Z,13.20
2022-10-01T20:53:34.021Z,13.10
2022-10-01T20:56:06.095Z,13.00
2022-10-01T20:58:44.545Z,13.00
2022-10-01T21:01:15.738Z,13.00
2022-10-01T21:03:45.405Z,13.00
2022-10-01T21:06:15.638Z,13.00
2022-10-01T21:08:47.403Z,13.10
2022-10-01T21:11:17.178Z,13.10
2022-10-01T21:13:50.640Z,13.10
2022-10-01T21:16:37.919Z,13.10
2022-10-01T21:19:17.433Z,13.20
2022-10-01T21:21:52.315Z,13.20
2022-10-01T21:24:34.920Z,13.20
2022-10-01T21:27:07.910Z,13.20
2022-10-01T21:29:54.206Z,13.20
2022-10-01T21:32:30.284Z,13.20
2022-10-01T21:35:07.481Z,13.30
2022-10-01T21:37:40.841Z,13.30
2022-10-01T21:40:17.770Z,13.40
2022-10-01T21:42:51.899Z,13.50
2022-10-01T21:45:30.451Z,13.50
2022-10-01T21:48:16.384Z,13.60
2022-10-01T21:50:50.283Z,13.60
2022-10-01T21:53:33.482Z,13.50
2022-10-01T21:56:11.423Z,13.50
2022-10-01T21:58:49.612Z,13.50
2022-10-01T22:01:20.922Z,13.50
2022-10-01T22:03:55.374Z,13.40
2022-10-01T22:06:29.045Z,13.40
2022-10-01T22:09:06.460Z,13.30
2022-10-01T22:11:37.554Z,13.30
2022-10-01T22:14:13.088Z,13.30
2022-10-01T22:16:44.426Z,13.30
2022-10-01T22:19:16.439Z,13.20
2022-10-01T22:21:46.309Z,13.20
2022-10-01T22:24:16.779Z,13.20
2022-10-01T22:26:47.155Z,13.10
2022-10-01T22:29:17.452Z,13.10
2022-10-01T22:31:46.709Z,13.10
2022-10-01T22:34:17.348Z,13.10
2022-10-01T22:36:49.097Z,13.10
2022-10-01T22:39:21.828Z,13.10
2022-10-01T22:41:53.244Z,13.10
2022-10-01T22:44:22.205Z,13.00
2022-10-01T22:47:06.170Z,13.00
2022-10-01T22:49:41.588Z,13.00
2022-10-01T22:52:15.529Z,13.10
2022-10-01T22:54:47.885Z,13.10
2022-10-01T22:57:24.077Z,13.10
2022-10-01T22:59:57.479Z,13.10
2022-10-01T23:02:26.724Z,13.00
2022-10-01T23:05:04.319Z,13.00
2022-10-01T23:07:37.184Z,13.00
2022-10-01T23:10:09.554Z,13.00
2022-10-01T23:12:41.352Z,12.90
2022-10-01T23:15:15.074Z,12.90
2022-10-01T23:17:45.063Z,12.90
2022-10-01T23:20:17.535Z,12.90
2022-10-01T23:22:51.360Z,12.90
2022-10-01T23:25:25.743Z,12.90
2022-10-01T23:27:59.987Z,12.90
2022-10-01T23:30:30.894Z,12.90
2022-10-01T23:33:14.124Z,12.90
2022-10-01T23:35:47.868Z,12.90
2022-10-01T23:38:26.392Z,12.90
2022-10-01T23:40:55.691Z,12.80
2022-10-01T23:43:26.728Z,12.80
2022-10-01T23:45:58.139Z,12.80
2022-10-01T23:48:29.100Z,12.90
2022-10-01T23:51:00.613Z,12.90
2022-10-01T23:53:31.540Z,12.90
2022-10-01T23:56:19.213Z,13.00
2022-10-01T23:58:51.562Z,13.00
